Terminal Aerodrome Forecast
Issued by NWS Wilmington, OH

Current Version | Previous Version | Text Only | Print | Product List | Glossary Off
Versions: 1 2 3 4 5 6 7 8 9 10 11 12 13

000
FTUS41 KILN 301000 AAA
TAFDAY
TAF AMD
KDAY 301044Z 3011/0106 36010KT P6SM VCSH OVC070
     FM301400 35012KT P6SM BKN050
     FM301700 35014G20KT P6SM OVC040
      TEMPO 3021/0101 5SM -SHRA BR OVC035
     FM010100 36010KT P6SM OVC035
     FM010400 34010KT P6SM OVC015=

USA.gov is the U.S. government's official web portal to all federal, state and local government web resources and services.